createdAt,value
2023-02-03T02:05:13.671Z,100858.20
2023-02-03T02:07:43.799Z,100860.60
2023-02-03T02:10:11.793Z,100862.40
2023-02-03T02:12:39.728Z,100865.60
2023-02-03T02:15:09.071Z,100862.80
2023-02-03T02:17:46.087Z,100860.00
2023-02-03T02:20:34.789Z,100849.60
2023-02-03T02:23:34.474Z,100845.60
2023-02-03T02:26:52.019Z,100848.60
2023-02-03T02:29:25.935Z,100844.00
2023-02-03T02:32:10.309Z,100843.80
2023-02-03T02:35:16.979Z,100846.40
2023-02-03T02:38:14.434Z,100848.80
2023-02-03T02:41:02.553Z,100845.60
2023-02-03T02:44:03.935Z,100834.40
2023-02-03T02:46:39.507Z,100826.60
2023-02-03T02:49:19.278Z,100823.00
2023-02-03T02:51:48.830Z,100821.60
2023-02-03T02:54:26.697Z,100820.80
2023-02-03T02:57:03.607Z,100822.40
2023-02-03T02:59:31.992Z,100826.40
2023-02-03T03:02:00.184Z,100823.60
2023-02-03T03:04:32.034Z,100825.20
2023-02-03T03:07:08.383Z,100825.80
2023-02-03T03:09:57.619Z,100825.60
2023-02-03T03:12:37.737Z,100836.40
2023-02-03T03:15:12.382Z,100827.80
2023-02-03T03:17:50.943Z,100824.60
2023-02-03T03:20:25.101Z,100824.60
2023-02-03T03:23:07.571Z,100820.80
2023-02-03T03:25:46.711Z,100821.60
2023-02-03T03:28:26.705Z,100829.00
2023-02-03T03:30:54.660Z,100828.60
2023-02-03T03:33:23.309Z,100829.60
2023-02-03T03:36:11.629Z,100827.00
2023-02-03T03:39:03.673Z,100822.00
2023-02-03T03:42:19.044Z,100817.20
2023-02-03T03:44:57.427Z,100812.60
2023-02-03T03:47:32.924Z,100809.60
2023-02-03T03:50:03.937Z,100809.80
2023-02-03T03:52:35.965Z,100805.80
2023-02-03T03:55:08.840Z,100812.80
2023-02-03T03:58:01.895Z,100810.20
2023-02-03T04:00:34.721Z,100813.60
2023-02-03T04:03:15.822Z,100814.20
2023-02-03T04:05:43.898Z,100808.60
2023-02-03T04:08:11.775Z,100806.40
2023-02-03T04:10:42.295Z,100812.60
2023-02-03T04:13:12.459Z,100820.20
2023-02-03T04:15:40.255Z,100811.60
2023-02-03T04:18:08.133Z,100812.40
2023-02-03T04:20:35.899Z,100813.60
2023-02-03T04:23:03.614Z,100816.00
2023-02-03T04:25:31.410Z,100809.00
2023-02-03T04:27:59.352Z,100807.00
2023-02-03T04:30:27.906Z,100804.80
2023-02-03T04:32:55.888Z,100802.80
2023-02-03T04:35:24.827Z,100811.40
2023-02-03T04:37:52.518Z,100814.60
2023-02-03T04:40:20.409Z,100813.00
2023-02-03T04:42:48.247Z,100818.60
2023-02-03T04:45:16.168Z,100819.20
2023-02-03T04:47:43.955Z,100813.40
2023-02-03T04:50:11.810Z,100816.40
2023-02-03T04:52:39.580Z,100813.40
2023-02-03T04:55:08.086Z,100804.80
2023-02-03T04:57:35.894Z,100802.80
2023-02-03T05:00:04.338Z,100804.20
2023-02-03T05:02:32.233Z,100801.00
2023-02-03T05:05:00.058Z,100796.40
2023-02-03T05:07:27.798Z,100791.20
2023-02-03T05:09:55.514Z,100785.60
2023-02-03T05:12:23.302Z,100789.00
2023-02-03T05:14:51.170Z,100784.40
2023-02-03T05:17:38.763Z,100782.20
2023-02-03T05:20:07.934Z,100778.20
2023-02-03T05:22:35.882Z,100778.80
2023-02-03T05:25:04.775Z,100781.00
2023-02-03T05:27:32.515Z,100783.00
2023-02-03T05:30:00.289Z,100786.00
2023-02-03T05:32:28.082Z,100782.00
2023-02-03T05:34:55.852Z,100777.20
2023-02-03T05:37:23.713Z,100778.00
2023-02-03T05:39:51.476Z,100779.60
2023-02-03T05:42:19.273Z,100776.40
2023-02-03T05:44:47.089Z,100778.20
2023-02-03T05:47:15.241Z,100778.40
2023-02-03T05:49:43.120Z,100778.60
2023-02-03T05:52:10.892Z,100777.20
2023-02-03T05:54:38.643Z,100773.20
2023-02-03T05:57:06.421Z,100769.40
2023-02-03T05:59:34.169Z,100770.20
2023-02-03T06:02:01.949Z,100771.00
2023-02-03T06:04:29.751Z,100770.20
2023-02-03T06:06:57.501Z,100766.60
2023-02-03T06:09:25.248Z,100766.40
2023-02-03T06:11:53.064Z,100762.80
2023-02-03T06:14:21.092Z,100758.80
2023-02-03T06:16:48.876Z,100762.40
2023-02-03T06:19:16.660Z,100764.80
2023-02-03T06:21:44.500Z,100763.00
2023-02-03T06:24:12.679Z,100764.40
2023-02-03T06:26:40.404Z,100752.80
2023-02-03T06:29:08.205Z,100751.20
2023-02-03T06:31:36.069Z,100743.80
2023-02-03T06:34:04.014Z,100748.80
2023-02-03T06:36:31.823Z,100745.60
2023-02-03T06:38:59.542Z,100741.60
2023-02-03T06:41:30.577Z,100737.40
2023-02-03T06:43:58.692Z,100729.40
2023-02-03T06:46:30.230Z,100723.80
2023-02-03T06:48:58.135Z,100718.80
2023-02-03T06:51:26.029Z,100715.60
2023-02-03T06:53:53.862Z,100711.40
2023-02-03T06:56:21.588Z,100706.80
2023-02-03T06:58:49.404Z,100703.40
2023-02-03T07:01:17.177Z,100699.40
2023-02-03T07:03:45.023Z,100696.60
2023-02-03T07:06:14.231Z,100692.80
2023-02-03T07:08:42.048Z,100682.20
2023-02-03T07:11:09.975Z,100680.60
2023-02-03T07:13:37.779Z,100678.80
2023-02-03T07:16:06.488Z,100668.80
2023-02-03T07:18:49.460Z,100666.40
2023-02-03T07:21:18.059Z,100658.40
2023-02-03T07:23:49.740Z,100656.00
2023-02-03T07:26:18.874Z,100653.20
2023-02-03T07:28:46.715Z,100653.80
2023-02-03T07:31:15.004Z,100651.40
2023-02-03T07:33:42.793Z,100650.80
2023-02-03T07:36:11.625Z,100652.00
2023-02-03T07:38:39.471Z,100649.00
2023-02-03T07:41:07.569Z,100644.80
2023-02-03T07:43:35.402Z,100638.40
2023-02-03T07:46:03.606Z,100634.60
2023-02-03T07:48:32.160Z,100622.80
2023-02-03T07:50:59.946Z,100619.60
2023-02-03T07:53:27.795Z,100612.00
2023-02-03T07:55:59.812Z,100607.20
2023-02-03T07:58:27.610Z,100602.80
2023-02-03T08:00:56.683Z,100603.60
2023-02-03T08:03:24.612Z,100594.60
2023-02-03T08:05:53.507Z,100592.60
2023-02-03T08:08:21.229Z,100584.00
2023-02-03T08:10:48.996Z,100582.20
2023-02-03T08:13:16.833Z,100579.40
2023-02-03T08:15:44.677Z,100571.00
2023-02-03T08:18:12.724Z,100572.00
2023-02-03T08:20:40.856Z,100566.40
2023-02-03T08:23:08.644Z,100570.40
2023-02-03T08:25:36.507Z,100564.80
2023-02-03T08:28:04.986Z,100564.80
2023-02-03T08:30:32.927Z,100562.00
2023-02-03T08:33:00.739Z,100565.80
2023-02-03T08:35:28.648Z,100556.20
2023-02-03T08:37:56.359Z,100551.40
2023-02-03T08:40:24.110Z,100547.60
2023-02-03T08:42:51.847Z,100541.20
2023-02-03T08:45:19.911Z,100527.80
2023-02-03T08:48:03.989Z,100523.20
2023-02-03T08:50:31.966Z,100523.20
2023-02-03T08:52:59.804Z,100526.00
2023-02-03T08:55:27.665Z,100522.60
2023-02-03T08:57:56.147Z,100523.80
2023-02-03T09:00:24.016Z,100521.40
2023-02-03T09:02:51.995Z,100514.80
2023-02-03T09:05:19.796Z,100507.00
2023-02-03T09:07:47.611Z,100495.40
2023-02-03T09:10:15.608Z,100490.40
2023-02-03T09:12:43.340Z,100488.20
2023-02-03T09:15:11.133Z,100484.00
2023-02-03T09:17:38.978Z,100481.40
2023-02-03T09:20:07.757Z,100479.20
2023-02-03T09:22:35.590Z,100475.80
2023-02-03T09:25:03.641Z,100473.20
2023-02-03T09:27:31.381Z,100465.20
2023-02-03T09:29:59.252Z,100464.00
2023-02-03T09:32:27.208Z,100458.80
2023-02-03T09:34:55.058Z,100451.20
2023-02-03T09:37:22.820Z,100447.80
2023-02-03T09:39:50.767Z,100438.80
2023-02-03T09:42:55.894Z,100430.80
2023-02-03T09:45:28.299Z,100426.60
2023-02-03T09:48:06.244Z,100422.80
2023-02-03T09:50:36.434Z,100418.00
2023-02-03T09:53:21.748Z,100408.80
2023-02-03T09:55:50.211Z,100394.60
2023-02-03T09:58:23.031Z,100388.20
2023-02-03T10:00:54.317Z,100386.80
2023-02-03T10:03:46.529Z,100378.20
2023-02-03T10:06:46.018Z,100374.20
2023-02-03T10:09:32.336Z,100361.00
2023-02-03T10:12:24.321Z,100353.60
2023-02-03T10:15:36.976Z,100346.00
2023-02-03T10:18:12.944Z,100340.00
2023-02-03T10:20:54.969Z,100339.00
2023-02-03T10:23:36.525Z,100330.60
2023-02-03T10:26:14.738Z,100322.60
2023-02-03T10:28:55.235Z,100312.40
2023-02-03T10:31:28.098Z,100310.00
2023-02-03T10:34:14.438Z,100299.80
2023-02-03T10:36:58.782Z,100292.20
2023-02-03T10:39:59.009Z,100282.60
2023-02-03T10:42:48.980Z,100273.60
2023-02-03T10:45:17.445Z,100270.60
2023-02-03T10:47:55.364Z,100260.40
2023-02-03T10:50:31.958Z,100252.60
2023-02-03T10:53:31.991Z,100256.60
2023-02-03T10:56:11.443Z,100246.80
2023-02-03T10:58:48.077Z,100234.40
2023-02-03T11:01:20.395Z,100218.00
2023-02-03T11:04:01.230Z,100205.60
2023-02-03T11:06:29.608Z,100191.60
2023-02-03T11:08:58.029Z,100181.20
2023-02-03T11:11:31.571Z,100171.00
2023-02-03T11:14:05.323Z,100161.40
2023-02-03T11:16:36.043Z,100147.40
2023-02-03T11:19:11.409Z,100139.60
2023-02-03T11:21:39.094Z,100131.60
2023-02-03T11:24:32.790Z,100126.60
2023-02-03T11:27:07.092Z,100117.80
2023-02-03T11:29:41.808Z,100107.80
2023-02-03T11:32:20.193Z,100098.20
2023-02-03T11:35:18.652Z,100090.60
2023-02-03T11:37:50.369Z,100076.20
2023-02-03T11:40:21.289Z,100060.20
2023-02-03T11:42:48.973Z,100057.80
2023-02-03T11:45:30.524Z,100045.80
2023-02-03T11:48:10.488Z,100039.20
2023-02-03T11:50:47.824Z,100035.40
2023-02-03T11:53:47.857Z,100031.40
2023-02-03T11:56:48.844Z,100031.00
2023-02-03T11:59:28.812Z,100015.60
2023-02-03T12:02:19.415Z,100013.20
2023-02-03T12:05:35.077Z,100007.00
2023-02-03T12:08:29.255Z,99997.60
2023-02-03T12:11:47.341Z,99989.60
2023-02-03T12:14:24.157Z,99986.40
2023-02-03T12:17:32.500Z,99975.80
2023-02-03T12:20:31.154Z,99974.20
2023-02-03T12:23:41.389Z,99970.40
2023-02-03T12:26:25.899Z,99960.20
2023-02-03T12:29:24.876Z,99955.60
2023-02-03T12:32:16.822Z,99950.80
2023-02-03T12:34:56.357Z,99944.40
2023-02-03T12:37:33.431Z,99943.20
2023-02-03T12:40:20.196Z,99931.60
2023-02-03T12:42:56.437Z,99933.40
2023-02-03T12:45:31.115Z,99921.60
2023-02-03T12:48:23.716Z,99910.60
2023-02-03T12:51:01.159Z,99899.40
2023-02-03T12:53:41.657Z,99892.80
2023-02-03T12:56:14.120Z,99884.20
2023-02-03T12:59:05.854Z,99869.40
2023-02-03T13:01:42.034Z,99852.80
2023-02-03T13:04:24.867Z,99844.80
2023-02-03T13:07:13.141Z,99836.80
2023-02-03T13:09:49.847Z,99834.20
2023-02-03T13:12:37.952Z,99819.40
2023-02-03T13:15:32.050Z,99807.40
2023-02-03T13:18:11.520Z,99796.60
2023-02-03T13:20:39.274Z,99788.80
2023-02-03T13:23:12.598Z,99783.00
2023-02-03T13:26:06.814Z,99773.40
2023-02-03T13:29:08.995Z,99759.40
2023-02-03T13:32:02.360Z,99745.20
2023-02-03T13:34:53.172Z,99736.80
2023-02-03T13:38:02.443Z,99728.80
2023-02-03T13:40:56.288Z,99717.40
2023-02-03T13:43:44.512Z,99702.60
2023-02-03T13:46:32.112Z,99701.60
2023-02-03T13:49:04.743Z,99698.80
2023-02-03T13:51:37.726Z,99698.20
2023-02-03T13:54:23.097Z,99695.40
2023-02-03T13:57:21.802Z,99691.20
2023-02-03T13:59:50.422Z,99684.20
2023-02-03T14:02:27.241Z,99680.80
2023-02-03T14:05:02.007Z,99678.00
2023-02-03T14:07:40.126Z,99668.80
2023-02-03T14:10:21.346Z,99659.40
2023-02-03T14:12:52.341Z,99653.00
2023-02-03T14:15:26.808Z,99648.40
2023-02-03T14:18:01.659Z,99642.20
2023-02-03T14:20:29.852Z,99636.60
2023-02-03T14:23:14.600Z,99629.00
2023-02-03T14:25:57.059Z,99627.80
2023-02-03T14:28:44.160Z,99618.20
2023-02-03T14:31:23.147Z,99616.80
2023-02-03T14:34:14.644Z,99607.20
2023-02-03T14:36:55.220Z,99602.00
2023-02-03T14:40:00.465Z,99598.60
2023-02-03T14:43:11.199Z,99586.20
2023-02-03T14:46:33.949Z,99584.20
2023-02-03T14:49:20.836Z,99576.00
2023-02-03T14:52:13.353Z,99573.00
2023-02-03T14:55:33.237Z,99568.80
2023-02-03T14:58:07.227Z,99566.60
2023-02-03T15:00:37.810Z,99557.20
2023-02-03T15:03:11.921Z,99551.20
2023-02-03T15:05:43.080Z,99548.40
2023-02-03T15:08:41.736Z,99545.00
2023-02-03T15:11:33.924Z,99542.20
2023-02-03T15:14:34.960Z,99535.20
2023-02-03T15:17:14.196Z,99530.60
2023-02-03T15:19:43.243Z,99528.20
2023-02-03T15:22:26.373Z,99522.00
2023-02-03T15:24:59.271Z,99523.40
2023-02-03T15:27:31.248Z,99515.00
2023-02-03T15:30:13.940Z,99511.80
2023-02-03T15:32:50.296Z,99510.00
2023-02-03T15:35:20.722Z,99504.60
2023-02-03T15:38:01.414Z,99490.20
2023-02-03T15:40:44.938Z,99484.60
2023-02-03T15:43:27.796Z,99485.40
2023-02-03T15:46:02.500Z,99480.00
2023-02-03T15:48:55.149Z,99484.60
2023-02-03T15:51:40.834Z,99473.20
2023-02-03T15:54:17.016Z,99470.60
2023-02-03T15:56:55.167Z,99462.40
2023-02-03T15:59:46.202Z,99466.00
2023-02-03T16:02:30.169Z,99459.40
2023-02-03T16:04:58.625Z,99456.20
2023-02-03T16:07:29.846Z,99452.80
2023-02-03T16:09:59.886Z,99448.40
2023-02-03T16:12:32.625Z,99442.80
2023-02-03T16:15:01.995Z,99444.60
2023-02-03T16:17:33.962Z,99442.40
2023-02-03T16:20:11.614Z,99441.80
2023-02-03T16:22:47.220Z,99438.00
2023-02-03T16:25:25.577Z,99431.40
2023-02-03T16:28:36.299Z,99422.80
2023-02-03T16:31:40.216Z,99424.40
2023-02-03T16:34:37.837Z,99420.60
2023-02-03T16:37:50.322Z,99415.40
2023-02-03T16:40:42.200Z,99419.40
2023-02-03T16:43:32.952Z,99418.20
2023-02-03T16:46:20.114Z,99409.40
2023-02-03T16:49:06.624Z,99414.20
2023-02-03T16:51:41.451Z,99412.20
2023-02-03T16:54:14.819Z,99403.80
2023-02-03T16:56:42.669Z,99403.60
2023-02-03T16:59:11.343Z,99401.00
2023-02-03T17:01:39.724Z,99398.60
2023-02-03T17:04:11.606Z,99399.80
2023-02-03T17:06:40.713Z,99407.20
2023-02-03T17:09:08.566Z,99399.40
2023-02-03T17:11:36.329Z,99404.20
2023-02-03T17:14:04.544Z,99396.40
2023-02-03T17:16:33.427Z,99399.20
2023-02-03T17:19:01.194Z,99394.40
2023-02-03T17:21:29.868Z,99392.80
2023-02-03T17:23:59.437Z,99390.80
2023-02-03T17:26:27.267Z,99396.60
2023-02-03T17:28:55.115Z,99400.40
2023-02-03T17:31:23.219Z,99401.40
2023-02-03T17:33:52.272Z,99401.80
2023-02-03T17:36:21.896Z,99396.40
2023-02-03T17:55:28.638Z,99409.80
2023-02-03T17:57:56.633Z,99400.20
2023-02-03T18:00:24.482Z,99407.20
2023-02-03T18:02:52.306Z,99412.80
2023-02-03T18:05:20.936Z,99417.40
2023-02-03T18:10:21.968Z,99414.80
2023-02-03T18:12:49.775Z,99416.40
2023-02-03T18:15:17.855Z,99416.40
2023-02-03T18:17:45.680Z,99420.00
2023-02-03T18:20:13.751Z,99424.80
2023-02-03T18:22:41.602Z,99426.80
2023-02-03T18:25:10.014Z,99428.20
2023-02-03T18:27:37.919Z,99432.00
2023-02-03T18:30:06.895Z,99438.80
2023-02-03T18:32:35.011Z,99437.00
2023-02-03T18:35:03.723Z,99437.40
2023-02-03T18:37:31.462Z,99446.40
2023-02-03T18:39:59.730Z,99453.40
2023-02-03T18:42:27.557Z,99455.00
2023-02-03T18:44:55.298Z,99458.80
2023-02-03T18:47:23.045Z,99459.00
2023-02-03T18:49:50.860Z,99461.80
2023-02-03T18:52:20.828Z,99463.40
2023-02-03T18:54:48.593Z,99462.60
2023-02-03T18:57:16.438Z,99462.80
2023-02-03T18:59:44.620Z,99454.80
2023-02-03T19:02:12.736Z,99464.60
2023-02-03T19:04:40.615Z,99465.60
2023-02-03T19:07:08.410Z,99463.80
2023-02-03T19:09:37.155Z,99466.00
2023-02-03T19:12:05.307Z,99460.40
2023-02-03T19:14:33.182Z,99464.20
2023-02-03T19:17:01.075Z,99468.20
2023-02-03T19:19:28.921Z,99477.20
2023-02-03T19:21:58.480Z,99471.60
2023-02-03T19:24:27.113Z,99471.00
2023-02-03T19:26:55.131Z,99475.00
2023-02-03T19:29:22.948Z,99478.00
2023-02-03T19:31:50.883Z,99478.00
2023-02-03T19:34:18.746Z,99482.40
2023-02-03T19:36:49.501Z,99481.40
2023-02-03T19:39:18.719Z,99477.80
2023-02-03T19:41:47.010Z,99479.00
2023-02-03T19:44:14.787Z,99473.40
2023-02-03T19:46:42.708Z,99470.20
2023-02-03T19:49:13.195Z,99468.00
2023-02-03T19:51:43.421Z,99473.60
2023-02-03T19:54:13.700Z,99467.40
2023-02-03T19:56:43.464Z,99469.20
2023-02-03T19:59:17.021Z,99479.20
2023-02-03T20:01:44.821Z,99487.60
2023-02-03T20:04:12.634Z,99495.00
2023-02-03T20:06:40.823Z,99496.60
2023-02-03T20:09:08.987Z,99501.60
2023-02-03T20:11:37.922Z,99491.20
2023-02-03T20:14:05.722Z,99497.00
2023-02-03T20:16:33.580Z,99504.20
2023-02-03T20:19:01.371Z,99505.40
2023-02-03T20:21:29.190Z,99509.40
2023-02-03T20:23:57.067Z,99502.80
2023-02-03T20:26:24.869Z,99500.80
2023-02-03T20:28:52.635Z,99502.40
2023-02-03T20:31:21.525Z,99508.20
2023-02-03T20:33:49.344Z,99508.40
2023-02-03T20:36:17.247Z,99517.40
2023-02-03T20:38:45.499Z,99527.40
2023-02-03T20:41:13.418Z,99540.20
2023-02-03T20:43:41.312Z,99542.20
2023-02-03T20:46:14.999Z,99539.00
2023-02-03T20:48:43.646Z,99538.20
2023-02-03T20:51:18.139Z,99540.20
2023-02-03T20:53:45.866Z,99541.00
2023-02-03T20:56:16.240Z,99535.40
2023-02-03T20:58:45.025Z,99523.40
2023-02-03T21:01:19.551Z,99525.00
2023-02-03T21:04:06.428Z,99535.40
2023-02-03T21:06:34.812Z,99551.80
2023-02-03T21:09:14.859Z,99556.00
2023-02-03T21:11:43.505Z,99567.60
2023-02-03T21:14:29.293Z,99566.00
2023-02-03T21:16:57.114Z,99566.60
2023-02-03T21:19:34.198Z,99567.40
2023-02-03T21:22:18.550Z,99579.40
2023-02-03T21:24:58.912Z,99593.00
2023-02-03T21:27:30.600Z,99603.20
2023-02-03T21:30:01.036Z,99602.20
2023-02-03T21:32:47.035Z,99596.20
2023-02-03T21:35:24.185Z,99594.40
2023-02-03T21:38:02.037Z,99592.20
2023-02-03T21:40:33.323Z,99602.80
2023-02-03T21:43:03.249Z,99611.40
2023-02-03T21:45:38.371Z,99620.60
2023-02-03T21:48:36.979Z,99623.80
2023-02-03T21:51:20.773Z,99623.80
2023-02-03T21:53:58.257Z,99629.40
2023-02-03T21:56:40.416Z,99635.60
2023-02-03T21:59:19.359Z,99636.20
2023-02-03T22:01:48.719Z,99634.00
2023-02-03T22:04:16.484Z,99638.20
2023-02-03T22:06:49.136Z,99642.20
2023-02-03T22:09:20.549Z,99646.80
2023-02-03T22:11:48.554Z,99650.80
2023-02-03T22:14:18.905Z,99648.20
2023-02-03T22:16:47.263Z,99652.60
2023-02-03T22:19:17.617Z,99647.40
2023-02-03T22:21:47.704Z,99656.40
2023-02-03T22:24:15.492Z,99658.00
2023-02-03T22:26:43.326Z,99663.40
2023-02-03T22:29:11.094Z,99672.60
2023-02-03T22:31:40.783Z,99674.60
2023-02-03T22:34:09.288Z,99682.80
2023-02-03T22:36:37.134Z,99684.20
2023-02-03T22:39:04.943Z,99684.60
2023-02-03T22:41:32.700Z,99686.40
2023-02-03T22:44:00.517Z,99683.20
2023-02-03T22:46:28.337Z,99687.20
2023-02-03T22:48:56.124Z,99695.60
2023-02-03T22:51:23.995Z,99695.20
2023-02-03T22:53:51.795Z,99693.00
2023-02-03T22:56:19.553Z,99695.00
2023-02-03T22:58:47.355Z,99694.80
2023-02-03T23:01:15.258Z,99698.20
2023-02-03T23:03:42.959Z,99694.60
2023-02-03T23:06:11.531Z,99703.80
2023-02-03T23:08:39.358Z,99705.60
2023-02-03T23:11:07.128Z,99719.40
2023-02-03T23:13:34.882Z,99721.40
2023-02-03T23:16:02.644Z,99717.80
2023-02-03T23:18:30.499Z,99725.60
2023-02-03T23:20:58.260Z,99731.00
2023-02-03T23:23:26.013Z,99733.00
2023-02-03T23:25:53.737Z,99738.60
2023-02-03T23:28:21.567Z,99749.20
2023-02-03T23:30:49.358Z,99757.20
2023-02-03T23:33:17.216Z,99765.80
2023-02-03T23:35:47.619Z,99777.20
2023-02-03T23:38:17.457Z,99785.00
2023-02-03T23:40:45.466Z,99786.60
2023-02-03T23:43:14.287Z,99794.60
2023-02-03T23:45:42.063Z,99797.20
2023-02-03T23:48:09.974Z,99806.80
2023-02-03T23:50:37.826Z,99804.00
2023-02-03T23:53:05.596Z,99801.40
2023-02-03T23:55:33.354Z,99810.80
2023-02-03T23:58:01.081Z,99808.20
